Friona, Texas
Current Conditions -  °F | °C
As of 4:15 AM on Sunday 25 Jan 2015 (Local Time) from KCVN Reporting Station
Clear Clear  
Wind Chill: 24°   Ceiling: Unl
Heat Index: 34°   Visibility: NA
Dew Point: 27°   Wind: 16mph
Humidity: 75%   Direction: 30°NNE
Pressure: 30.15"   Gusts: NA
Location:  34.64°N, 102.72°W
Report Text: KCVN 251015Z AUTO 03014KT CLR 01/M03 A3015 RMK AO1
Loading
Personal Weather Stations






























Interactive Weather Map New forecast layout! Learn more

10-Day Weather Forecast

Advertisements
Track Severe Weather on mobile